Time;durP1;ratioP1;P1;durP2;ratioP2;P2;SDS_P1;SDS_P2;PMS_P1;PMS_P2;Temp;Humidity;BMP_temperature;BMP_pressure;BME280_temperature;BME280_humidity;BME280_pressure;Samples;Min_cycle;Max_cycle;Signal;HPM_P1;HPM_P2
2021/08/25 00:00:29;;;;;;;11.10;9.82;;;;;;;12.05;100.00;96429.34;1031136;28;20017;-69
2021/08/25 00:00:59;;;;;;;11.18;9.75;;;;;;;12.08;100.00;96434.88;1023695;28;20019;-69
2021/08/25 00:01:31;;;;;;;10.95;9.82;;;;;;;12.09;100.00;96430.41;1026478;28;21163;-70
2021/08/25 00:02:02;;;;;;;10.57;9.48;;;;;;;11.98;100.00;96417.19;1029325;28;20384;-68
2021/08/25 00:02:33;;;;;;;10.32;9.23;;;;;;;12.05;100.00;96431.97;1027217;28;20290;-70
2021/08/25 00:03:05;;;;;;;11.00;9.30;;;;;;;12.03;100.00;96425.09;1031144;28;20245;-69
2021/08/25 00:03:36;;;;;;;11.63;9.90;;;;;;;12.01;100.00;96427.22;1030246;28;20264;-67
2021/08/25 00:04:06;;;;;;;12.07;10.50;;;;;;;12.06;100.00;96431.69;1030948;28;20269;-70
2021/08/25 00:04:37;;;;;;;12.20;10.30;;;;;;;11.99;100.00;96417.97;1027377;28;20015;-69
2021/08/25 00:05:09;;;;;;;12.00;9.68;;;;;;;12.01;100.00;96424.59;1035010;28;20113;-69
2021/08/25 00:05:39;;;;;;;11.18;10.07;;;;;;;11.97;100.00;96422.69;1023063;28;20271;-69
2021/08/25 00:06:10;;;;;;;11.32;9.95;;;;;;;11.97;100.00;96418.25;1030902;28;20257;-69
2021/08/25 00:06:40;;;;;;;14.05;11.50;;;;;;;12.00;100.00;96428.25;1026907;28;20086;-69
2021/08/25 00:07:11;;;;;;;13.38;10.55;;;;;;;11.98;100.00;96425.09;1026894;28;20074;-69
2021/08/25 00:07:41;;;;;;;11.35;9.90;;;;;;;11.93;100.00;96414.53;1035078;28;20026;-68
2021/08/25 00:08:11;;;;;;;14.55;11.18;;;;;;;11.96;100.00;96427.16;1035145;28;20026;-70
2021/08/25 00:08:42;;;;;;;11.70;10.35;;;;;;;11.95;100.00;96420.34;1034636;28;20379;-69
2021/08/25 00:09:12;;;;;;;11.35;10.18;;;;;;;11.95;100.00;96422.97;1031020;28;20071;-69
2021/08/25 00:09:43;;;;;;;12.88;10.82;;;;;;;11.97;100.00;96423.50;1027147;28;20445;-69
2021/08/25 00:10:16;;;;;;;13.68;11.02;;;;;;;11.97;100.00;96418.25;1026976;28;20058;-69
2021/08/25 00:10:47;;;;;;;12.57;10.77;;;;;;;11.96;100.00;96419.28;1026927;28;20082;-69
2021/08/25 00:11:17;;;;;;;12.30;10.82;;;;;;;11.99;100.00;96420.63;1026956;28;20377;-68
2021/08/25 00:11:48;;;;;;;12.27;10.73;;;;;;;11.97;100.00;96418.25;1030580;28;20097;-69
2021/08/25 00:12:18;;;;;;;13.93;11.32;;;;;;;11.96;100.00;96419.28;1032440;28;20029;-69
2021/08/25 00:12:49;;;;;;;13.55;10.68;;;;;;;12.00;100.00;96417.75;1034728;28;20018;-69
2021/08/25 00:13:20;;;;;;;11.02;9.80;;;;;;;12.01;100.00;96421.16;1035071;28;20025;-68
2021/08/25 00:13:50;;;;;;;13.50;10.52;;;;;;;11.95;100.00;96399.28;1034622;28;20022;-69
2021/08/25 00:14:22;;;;;;;12.07;10.88;;;;;;;12.06;100.00;96417.75;1035062;28;20324;-69
2021/08/25 00:14:52;;;;;;;12.27;10.27;;;;;;;12.08;100.00;96415.69;1034943;28;20512;-69
2021/08/25 00:15:23;;;;;;;11.88;10.68;;;;;;;12.08;100.00;96420.94;1034618;28;20249;-68
2021/08/25 00:15:53;;;;;;;13.68;10.52;;;;;;;12.01;100.00;96403.53;1035126;28;20026;-69
2021/08/25 00:16:24;;;;;;;11.70;10.50;;;;;;;12.11;100.00;96420.44;1031110;28;20420;-68
2021/08/25 00:16:54;;;;;;;11.35;10.05;;;;;;;12.13;100.00;96411.22;1026945;28;20125;-70
2021/08/25 00:17:25;;;;;;;13.60;11.18;;;;;;;12.13;100.00;96418.31;1029197;28;20750;-69
2021/08/25 00:17:55;;;;;;;12.00;10.70;;;;;;;12.09;100.00;96404.09;1031232;28;20543;-69
2021/08/25 00:18:26;;;;;;;11.80;10.45;;;;;;;12.10;100.00;96405.66;1023052;28;20752;-68
2021/08/25 00:18:56;;;;;;;14.43;10.43;;;;;;;12.14;100.00;96410.19;1024138;28;20637;-68
2021/08/25 00:19:27;;;;;;;12.27;10.50;;;;;;;12.16;100.00;96409.91;1026907;28;20456;-69
2021/08/25 00:19:57;;;;;;;11.90;10.02;;;;;;;12.14;100.00;96412.81;1031021;28;20059;-68
2021/08/25 00:20:27;;;;;;;12.85;10.93;;;;;;;12.13;100.00;96410.44;1027348;28;20081;-68
2021/08/25 00:20:58;;;;;;;12.05;10.75;;;;;;;12.15;100.00;96413.59;1035104;28;20459;-69
2021/08/25 00:21:29;;;;;;;10.95;9.80;;;;;;;12.16;100.00;96405.44;1033923;28;20125;-68
2021/08/25 00:21:59;;;;;;;12.65;10.60;;;;;;;12.16;100.00;96404.66;1035290;28;20025;-69
2021/08/25 00:22:30;;;;;;;12.70;10.85;;;;;;;12.21;100.00;96404.69;1035090;28;20037;-69
2021/08/25 00:23:00;;;;;;;11.65;10.45;;;;;;;12.17;100.00;96411.50;1030880;28;20022;-70
2021/08/25 00:23:31;;;;;;;13.75;10.77;;;;;;;12.19;100.00;96410.19;1031100;28;20026;-69
2021/08/25 00:24:04;;;;;;;17.70;11.38;;;;;;;12.18;100.00;96419.16;1030960;28;20022;-70
2021/08/25 00:24:34;;;;;;;11.93;10.25;;;;;;;12.15;100.00;96403.88;1027606;28;20027;-69
2021/08/25 00:25:05;;;;;;;11.65;10.23;;;;;;;12.16;100.00;96410.72;1038882;28;21242;-69
2021/08/25 00:25:35;;;;;;;11.93;10.60;;;;;;;12.13;100.00;96405.94;1038736;28;20368;-69
2021/08/25 00:26:06;;;;;;;14.77;10.93;;;;;;;12.12;100.00;96412.28;1035477;28;20018;-67
2021/08/25 00:26:36;;;;;;;13.43;10.93;;;;;;;12.17;100.00;96411.50;1037433;28;20673;-69
2021/08/25 00:27:07;;;;;;;11.32;10.00;;;;;;;12.18;100.00;96407.84;1039108;28;20522;-69
2021/08/25 00:27:38;;;;;;;11.13;9.77;;;;;;;12.20;100.00;96413.63;1031927;28;20642;-69
2021/08/25 00:28:08;;;;;;;12.65;10.38;;;;;;;12.19;100.00;96414.69;1026580;28;20019;-68
2021/08/25 00:28:38;;;;;;;14.35;10.95;;;;;;;12.19;100.00;96409.41;1035051;28;20479;-69
2021/08/25 00:29:09;;;;;;;13.30;11.13;;;;;;;12.15;100.00;96408.34;1034657;28;20538;-68
2021/08/25 00:29:39;;;;;;;11.95;10.65;;;;;;;12.07;100.00;96395.66;1034973;28;20069;-70
2021/08/25 00:30:10;;;;;;;12.85;10.63;;;;;;;12.14;100.00;96409.38;1038665;28;20394;-68
2021/08/25 00:30:41;;;;;;;12.80;10.63;;;;;;;12.15;100.00;96408.34;1034789;28;20022;-69
2021/08/25 00:31:11;;;;;;;14.27;11.02;;;;;;;12.15;100.00;96403.09;1034596;28;20026;-68
2021/08/25 00:31:42;;;;;;;12.40;11.10;;;;;;;12.14;100.00;96402.28;1030252;28;20014;-69
2021/08/25 00:32:13;;;;;;;12.25;10.95;;;;;;;12.14;100.00;96406.75;1026999;28;20027;-69
2021/08/25 00:32:43;;;;;;;12.60;11.25;;;;;;;12.12;100.00;96404.38;1026653;28;20027;-69
2021/08/25 00:33:13;;;;;;;11.57;10.38;;;;;;;12.14;100.00;96404.09;1027200;28;20081;-68
2021/08/25 00:33:44;;;;;;;11.98;10.77;;;;;;;12.15;100.00;96408.34;1034754;28;20040;-70
2021/08/25 00:34:14;;;;;;;16.33;11.40;;;;;;;12.12;100.00;96408.84;1031084;28;20031;-67
2021/08/25 00:34:45;;;;;;;13.20;11.18;;;;;;;12.14;100.00;96412.00;1035977;28;20029;-69
2021/08/25 00:35:15;;;;;;;12.57;11.18;;;;;;;12.16;100.00;96400.19;1034850;28;20030;-68
2021/08/25 00:35:46;;;;;;;13.45;11.38;;;;;;;12.16;100.00;96404.66;1030922;28;20460;-69
2021/08/25 00:36:16;;;;;;;13.95;11.75;;;;;;;12.18;100.00;96398.09;1030706;28;20472;-68
2021/08/25 00:36:47;;;;;;;13.07;11.05;;;;;;;12.18;100.00;96410.47;1034950;28;20048;-70
2021/08/25 00:37:17;;;;;;;13.35;10.70;;;;;;;12.20;100.00;96409.13;1031056;28;20065;-70
2021/08/25 00:37:48;;;;;;;13.35;11.43;;;;;;;12.19;100.00;96404.16;1026706;28;20027;-70
2021/08/25 00:38:18;;;;;;;12.27;10.98;;;;;;;12.19;100.00;96410.19;1027981;28;20015;-68
2021/08/25 00:38:48;;;;;;;15.00;11.45;;;;;;;12.16;100.00;96396.78;1023004;28;20023;-68
2021/08/25 00:39:19;;;;;;;11.70;10.50;;;;;;;12.16;100.00;96402.03;1023337;28;20026;-69
2021/08/25 00:39:49;;;;;;;16.30;11.38;;;;;;;12.14;100.00;96407.56;1020630;28;20479;-68
2021/08/25 00:40:20;;;;;;;14.23;11.68;;;;;;;12.20;100.00;96406.50;1023003;28;20274;-70
2021/08/25 00:40:50;;;;;;;14.30;11.10;;;;;;;12.17;100.00;96407.06;1027201;28;20027;-70
2021/08/25 00:41:21;;;;;;;14.30;11.73;;;;;;;12.18;100.00;96406.00;1026657;28;20018;-69
2021/08/25 00:41:51;;;;;;;15.20;12.18;;;;;;;12.17;100.00;96406.22;1026801;28;20168;-69
2021/08/25 00:42:22;;;;;;;13.40;11.90;;;;;;;12.16;100.00;96400.19;1027071;28;20057;-70
2021/08/25 00:42:52;;;;;;;13.10;11.73;;;;;;;12.15;100.00;96403.09;1031390;28;20023;-68
2021/08/25 00:43:22;;;;;;;13.73;10.93;;;;;;;12.17;100.00;96406.22;1030932;28;20030;-68
2021/08/25 00:43:59;;;;;;;14.13;12.15;;;;;;;12.16;100.00;96404.66;1032147;28;20049;-69
2021/08/25 00:44:29;;;;;;;12.52;11.18;;;;;;;12.09;100.00;96399.63;1031045;28;20783;-69
2021/08/25 00:45:01;;;;;;;13.60;11.70;;;;;;;12.14;100.00;96406.75;1029522;28;20023;-68
2021/08/25 00:45:36;;;;;;;13.52;11.98;;;;;;;12.14;100.00;96402.28;1035385;28;20117;-69
2021/08/25 00:46:06;;;;;;;14.38;11.73;;;;;;;12.11;100.00;96402.81;1035905;28;20344;-68
2021/08/25 00:46:37;;;;;;;14.60;11.50;;;;;;;12.09;100.00;96401.47;1035607;28;20782;-69
2021/08/25 00:47:07;;;;;;;14.63;11.75;;;;;;;12.07;100.00;96406.19;1035193;28;20450;-70
2021/08/25 00:47:39;;;;;;;14.77;11.73;;;;;;;12.07;100.00;96403.56;1035233;28;20022;-70
2021/08/25 00:48:11;;;;;;;13.80;11.68;;;;;;;12.08;100.00;96402.53;1030651;28;20073;-67
2021/08/25 00:48:46;;;;;;;13.23;11.45;;;;;;;12.09;100.00;96404.09;1023470;28;20258;-68
2021/08/25 00:49:18;;;;;;;13.50;11.70;;;;;;;12.08;100.00;96403.31;1027179;28;20778;-69
2021/08/25 00:49:48;;;;;;;12.20;10.95;;;;;;;12.07;100.00;96406.19;1024132;28;20350;-68
2021/08/25 00:50:19;;;;;;;12.18;10.98;;;;;;;12.06;100.00;96399.34;1030097;28;20308;-69
2021/08/25 00:50:49;;;;;;;16.23;12.18;;;;;;;12.01;100.00;96403.53;1023244;29;20019;-69
2021/08/25 00:51:22;;;;;;;12.63;11.18;;;;;;;12.07;100.00;96406.19;1022736;28;20045;-68
2021/08/25 00:51:52;;;;;;;13.25;11.30;;;;;;;12.03;100.00;96403.28;1026823;28;20037;-69
2021/08/25 00:52:23;;;;;;;14.82;11.70;;;;;;;12.00;100.00;96401.97;1027487;28;20277;-68
2021/08/25 00:52:53;;;;;;;13.30;11.85;;;;;;;12.06;100.00;96409.88;1035920;28;20067;-69
2021/08/25 00:53:23;;;;;;;13.30;11.90;;;;;;;12.03;100.00;96405.91;1043068;28;20072;-67
2021/08/25 00:53:54;;;;;;;12.90;11.45;;;;;;;12.03;100.00;96406.69;1039245;28;20036;-70
2021/08/25 00:54:24;;;;;;;13.45;11.65;;;;;;;12.05;100.00;96416.19;1035123;28;20064;-69
2021/08/25 00:54:59;;;;;;;13.75;11.93;;;;;;;11.99;100.00;96394.31;1039239;28;20037;-68
2021/08/25 00:55:34;;;;;;;13.02;11.73;;;;;;;12.07;100.00;96406.19;1031491;28;20751;-68
2021/08/25 00:56:06;;;;;;;13.70;11.80;;;;;;;12.06;100.00;96407.25;1027232;28;20262;-69
2021/08/25 00:56:37;;;;;;;13.45;11.40;;;;;;;12.07;100.00;96408.81;1026958;28;20264;-69
2021/08/25 00:57:07;;;;;;;13.32;11.88;;;;;;;12.08;100.00;96405.16;1025792;28;20278;-67
2021/08/25 00:57:37;;;;;;;13.43;11.48;;;;;;;12.08;100.00;96402.53;1035245;28;20767;-69
2021/08/25 00:58:08;;;;;;;13.95;11.90;;;;;;;12.04;100.00;96399.63;1039182;28;20454;-69
2021/08/25 00:58:39;;;;;;;15.43;12.25;;;;;;;12.07;100.00;96406.19;1028965;28;20049;-69
2021/08/25 00:59:11;;;;;;;13.88;12.20;;;;;;;12.02;100.00;96405.13;1027194;28;20518;-69
2021/08/25 00:59:41;;;;;;;13.20;11.88;;;;;;;12.01;100.00;96403.53;1026688;28;20739;-68
2021/08/25 01:00:12;;;;;;;13.82;11.85;;;;;;;11.96;100.00;96397.44;1020865;28;20256;-69
2021/08/25 01:00:53;;;;;;;14.50;11.65;;;;;;;12.00;100.00;96401.97;1034983;28;20025;-69
2021/08/25 01:01:51;;;;;;;16.17;11.60;;;;;;;12.00;100.00;96401.97;1024024;28;20838;-70
2021/08/25 01:02:51;;;;;;;13.25;11.82;;;;;;;11.94;100.00;96402.97;1026961;28;20262;-69
2021/08/25 01:03:27;;;;;;;14.93;11.57;;;;;;;11.94;100.00;96402.97;1032359;28;20261;-69
2021/08/25 01:03:59;;;;;;;13.18;10.85;;;;;;;11.94;100.00;96396.94;1022717;28;20353;-69
2021/08/25 01:04:48;;;;;;;12.75;11.27;;;;;;;11.94;100.00;96402.19;1023256;29;20300;-69
2021/08/25 01:05:18;;;;;;;15.07;11.75;;;;;;;11.93;100.00;96406.63;1023918;28;20261;-70
2021/08/25 01:05:48;;;;;;;13.57;11.75;;;;;;;11.92;100.00;96410.31;1031052;28;20269;-69
2021/08/25 01:06:22;;;;;;;14.23;11.65;;;;;;;11.91;100.00;96403.47;1024787;28;20022;-69
2021/08/25 01:06:54;;;;;;;14.23;11.73;;;;;;;11.90;100.00;96404.50;1022850;28;20027;-68
2021/08/25 01:07:27;;;;;;;11.95;10.65;;;;;;;11.91;100.00;96406.13;1026938;28;20301;-69
2021/08/25 01:07:59;;;;;;;15.35;12.77;;;;;;;11.90;100.00;96406.34;1027121;28;20353;-70
2021/08/25 01:08:29;;;;;;;13.90;12.32;;;;;;;11.90;100.00;96403.72;1035190;28;20332;-69
2021/08/25 01:09:02;;;;;;;12.88;11.57;;;;;;;11.93;100.00;96405.84;1034228;28;20279;-70
2021/08/25 01:09:35;;;;;;;13.40;11.50;;;;;;;11.95;100.00;96399.28;1031085;28;20408;-70
2021/08/25 01:10:25;;;;;;;14.57;10.93;;;;;;;11.89;100.00;96395.03;1023783;28;20780;-69
2021/08/25 01:11:13;;;;;;;14.10;11.90;;;;;;;11.94;100.00;96396.94;1026230;28;20278;-69
2021/08/25 01:11:44;;;;;;;14.05;11.65;;;;;;;11.88;100.00;96396.09;1026928;28;20330;-69
2021/08/25 01:12:15;;;;;;;14.07;11.75;;;;;;;11.89;100.00;96400.31;1031046;28;20304;-70
2021/08/25 01:12:45;;;;;;;13.70;11.57;;;;;;;11.88;100.00;96398.72;1031053;28;20341;-71
2021/08/25 01:13:16;;;;;;;14.10;11.63;;;;;;;11.86;100.00;96395.56;1034692;28;20040;-69
2021/08/25 01:13:46;;;;;;;14.05;12.50;;;;;;;11.85;100.00;96399.22;1034125;28;20030;-69
2021/08/25 01:14:17;;;;;;;13.10;11.38;;;;;;;11.88;100.00;96398.72;1027547;28;20031;-69
2021/08/25 01:14:47;;;;;;;13.98;12.48;;;;;;;11.86;100.00;96400.03;1027069;28;20379;-70
2021/08/25 01:15:18;;;;;;;14.82;12.40;;;;;;;11.77;100.00;96391.81;1026950;28;20031;-70
2021/08/25 01:15:49;;;;;;;12.23;10.93;;;;;;;11.82;100.00;96393.66;1027341;28;20411;-69
2021/08/25 01:16:19;;;;;;;13.05;11.63;;;;;;;11.82;100.00;96398.91;1023200;28;20038;-69
2021/08/25 01:16:50;;;;;;;13.00;11.52;;;;;;;11.85;100.00;96401.06;1023015;29;20034;-69
2021/08/25 01:17:20;;;;;;;12.75;11.45;;;;;;;11.79;100.00;96389.69;1022200;28;20150;-69
2021/08/25 01:17:51;;;;;;;13.90;11.85;;;;;;;11.83;100.00;96396.03;1023151;29;20026;-69
2021/08/25 01:18:22;;;;;;;13.82;12.00;;;;;;;11.84;100.00;96389.78;1026953;28;20034;-69
2021/08/25 01:18:53;;;;;;;12.50;11.05;;;;;;;11.85;100.00;96391.34;1026956;28;20026;-69
2021/08/25 01:19:25;;;;;;;13.82;12.35;;;;;;;11.78;100.00;96383.66;1019068;29;20066;-69
2021/08/25 01:20:00;;;;;;;13.73;11.75;;;;;;;11.84;100.00;96396.81;1027326;28;20305;-69
2021/08/25 01:20:31;;;;;;;14.95;11.73;;;;;;;11.85;100.00;96393.19;1032344;28;20280;-69
2021/08/25 01:21:02;;;;;;;13.43;11.55;;;;;;;11.79;100.00;96374.72;1031158;28;20352;-69
2021/08/25 01:21:32;;;;;;;12.55;11.25;;;;;;;11.87;100.00;96385.81;1023189;28;20034;-70
2021/08/25 01:22:03;;;;;;;12.50;11.18;;;;;;;11.89;100.00;96392.41;1019157;29;20036;-69
2021/08/25 01:22:33;;;;;;;12.32;11.07;;;;;;;11.89;100.00;96387.16;1022004;29;20132;-70
2021/08/25 01:23:04;;;;;;;12.65;11.18;;;;;;;11.88;100.00;96393.47;1030829;28;20022;-69
2021/08/25 01:23:39;;;;;;;12.02;10.50;;;;;;;11.92;100.00;96391.91;1027351;28;20098;-69
2021/08/25 01:24:10;;;;;;;12.00;10.80;;;;;;;11.89;100.00;96394.25;1026886;28;20105;-70
2021/08/25 01:24:41;;;;;;;12.18;10.70;;;;;;;11.89;100.00;96395.03;1023204;28;20313;-69
2021/08/25 01:25:12;;;;;;;13.07;11.27;;;;;;;11.89;100.00;96386.38;1026982;28;20031;-70
2021/08/25 01:25:42;;;;;;;11.63;10.43;;;;;;;11.83;100.00;96379.47;1022781;29;20083;-69
2021/08/25 01:26:15;;;;;;;12.35;10.98;;;;;;;11.82;100.00;96383.94;1023361;28;20259;-69
2021/08/25 01:26:46;;;;;;;12.30;10.93;;;;;;;11.88;100.00;96384.78;1022705;28;20035;-69
2021/08/25 01:27:17;;;;;;;13.48;11.40;;;;;;;11.75;100.00;96372.84;1027524;28;20276;-69
2021/08/25 01:27:53;;;;;;;13.60;10.52;;;;;;;11.79;100.00;96373.91;1027143;28;20266;-69
2021/08/25 01:28:26;;;;;;;12.40;10.65;;;;;;;11.87;100.00;96386.63;1022392;29;20027;-70
2021/08/25 01:28:56;;;;;;;13.02;11.57;;;;;;;11.80;100.00;96375.50;1023322;29;20302;-70
2021/08/25 01:29:29;;;;;;;12.88;11.35;;;;;;;11.80;100.00;96375.50;1023863;28;20275;-70
2021/08/25 01:29:59;;;;;;;15.57;11.32;;;;;;;11.79;100.00;96382.59;1027877;28;20634;-69
2021/08/25 01:30:31;;;;;;;12.25;11.02;;;;;;;11.70;100.00;96372.81;1030963;28;20295;-70
2021/08/25 01:31:02;;;;;;;15.20;10.73;;;;;;;11.75;100.00;96389.41;1030910;28;20014;-68
2021/08/25 01:31:32;;;;;;;12.38;11.18;;;;;;;11.74;100.00;96381.78;1026006;28;20270;-69
2021/08/25 01:32:03;;;;;;;12.85;11.07;;;;;;;11.74;100.00;96381.78;1027416;28;20038;-68
2021/08/25 01:32:34;;;;;;;16.45;11.52;;;;;;;11.73;100.00;96380.19;1030982;28;20018;-68
2021/08/25 01:33:05;;;;;;;14.02;11.32;;;;;;;11.70;100.00;96376.25;1035298;28;20014;-69
2021/08/25 01:33:35;;;;;;;14.95;11.02;;;;;;;11.69;100.00;96379.91;1039069;28;20264;-69
2021/08/25 01:34:06;;;;;;;14.88;11.38;;;;;;;11.65;100.00;96370.94;1038867;28;20025;-70
2021/08/25 01:34:53;;;;;;;12.88;11.57;;;;;;;11.56;100.00;96367.97;1030819;28;20033;-69
2021/08/25 01:35:36;;;;;;;11.55;10.35;;;;;;;11.57;100.00;96366.19;1018925;29;20016;-69
2021/08/25 01:36:13;;;;;;;12.70;11.35;;;;;;;11.59;100.00;96371.94;1026782;28;20264;-68
2021/08/25 01:36:43;;;;;;;13.10;11.70;;;;;;;11.56;100.00;96381.13;1026572;28;20259;-69
2021/08/25 01:37:13;;;;;;;14.85;11.73;;;;;;;11.54;100.00;96383.22;1023054;29;20988;-69
2021/08/25 01:37:44;;;;;;;14.75;11.55;;;;;;;11.41;100.00;96356.59;1020659;28;20020;-69
2021/08/25 01:38:35;;;;;;;13.38;11.98;;;;;;;11.49;100.00;96377.94;1028630;28;20053;-68
2021/08/25 01:39:06;;;;;;;14.35;11.45;;;;;;;11.47;100.00;96371.38;1033341;28;20040;-69
2021/08/25 01:39:36;;;;;;;14.15;11.63;;;;;;;11.43;100.00;96371.03;1035237;28;20255;-69
2021/08/25 01:40:07;;;;;;;15.93;12.85;;;;;;;11.42;100.00;96372.09;1034205;28;20014;-69
2021/08/25 01:40:38;;;;;;;14.05;12.05;;;;;;;11.42;100.00;96373.94;1031144;28;20533;-67
2021/08/25 01:41:09;;;;;;;19.52;12.77;;;;;;;11.35;100.00;96363.63;1031116;28;20315;-70
2021/08/25 01:41:39;;;;;;;14.43;12.43;;;;;;;11.26;100.00;96357.25;1030523;28;20022;-70
2021/08/25 01:42:10;;;;;;;13.90;11.95;;;;;;;11.31;100.00;96367.81;1030891;28;20034;-69
2021/08/25 01:42:43;;;;;;;14.43;11.98;;;;;;;11.30;100.00;96367.03;1034839;28;20032;-69
2021/08/25 01:43:14;;;;;;;14.65;13.15;;;;;;;11.28;100.00;96370.94;1030583;28;20337;-68
2021/08/25 01:43:45;;;;;;;14.60;12.88;;;;;;;11.25;100.00;96366.19;1022849;29;20278;-69
2021/08/25 01:44:15;;;;;;;16.35;13.27;;;;;;;11.23;100.00;96365.63;1027017;28;20101;-70
2021/08/25 01:44:46;;;;;;;14.10;12.27;;;;;;;11.21;100.00;96376.41;1025516;28;20320;-68
2021/08/25 01:45:17;;;;;;;15.15;12.98;;;;;;;11.19;100.00;96373.22;1025289;28;20019;-69
2021/08/25 01:45:47;;;;;;;15.00;13.18;;;;;;;11.19;100.00;96369.81;1032208;28;20272;-69
2021/08/25 01:46:22;;;;;;;14.00;12.43;;;;;;;11.17;100.00;96372.72;1030579;28;20018;-70
2021/08/25 01:46:52;;;;;;;14.52;12.43;;;;;;;11.15;100.00;96376.63;1030652;28;20022;-70
2021/08/25 01:47:23;;;;;;;15.30;12.52;;;;;;;11.14;100.00;96367.94;1034649;28;20271;-68
2021/08/25 01:47:53;;;;;;;14.20;12.60;;;;;;;11.12;100.00;96370.03;1035976;28;20105;-69
2021/08/25 01:48:24;;;;;;;15.43;13.68;;;;;;;11.10;100.00;96366.88;1038542;28;20042;-66
2021/08/25 01:48:57;;;;;;;15.57;12.90;;;;;;;11.03;100.00;96361.00;1034660;28;20033;-69
2021/08/25 01:49:27;;;;;;;15.88;13.55;;;;;;;11.06;100.00;96374.44;1030839;28;20554;-69
2021/08/25 01:49:58;;;;;;;17.10;13.48;;;;;;;11.04;100.00;96373.13;1030459;28;20305;-68
2021/08/25 01:50:28;;;;;;;15.45;13.32;;;;;;;11.04;100.00;96373.91;1026578;28;20030;-69
2021/08/25 01:50:59;;;;;;;14.63;13.10;;;;;;;10.98;100.00;96367.03;1026796;28;20031;-69
2021/08/25 01:51:30;;;;;;;14.52;12.57;;;;;;;10.98;100.00;96369.66;1029707;28;20030;-69
2021/08/25 01:52:00;;;;;;;14.25;12.38;;;;;;;10.97;100.00;96364.66;1026728;28;20023;-68
2021/08/25 01:52:31;;;;;;;14.93;13.32;;;;;;;10.97;100.00;96368.06;1030771;28;20274;-68
2021/08/25 01:53:01;;;;;;;17.15;12.93;;;;;;;10.96;100.00;96366.47;1030576;28;20037;-68
2021/08/25 01:53:31;;;;;;;16.25;12.68;;;;;;;10.94;100.00;96365.94;1030568;28;20038;-67
2021/08/25 01:54:05;;;;;;;18.27;13.75;;;;;;;10.87;100.00;96357.47;1034748;28;20509;-69
2021/08/25 01:54:38;;;;;;;15.15;13.52;;;;;;;10.92;100.00;96370.63;1026679;28;20034;-68
2021/08/25 01:55:09;;;;;;;14.60;13.07;;;;;;;10.82;100.00;96349.53;1024102;28;20275;-70
2021/08/25 01:55:39;;;;;;;16.05;13.55;;;;;;;10.88;100.00;96358.25;1026646;28;20826;-69
2021/08/25 01:56:09;;;;;;;17.58;14.18;;;;;;;10.88;100.00;96361.69;1026688;28;20038;-67
2021/08/25 01:56:40;;;;;;;16.23;13.60;;;;;;;10.88;100.00;96369.56;1030514;28;20528;-67
2021/08/25 01:57:10;;;;;;;17.70;13.90;;;;;;;10.81;100.00;96355.84;1034732;28;20901;-68
2021/08/25 01:57:41;;;;;;;18.52;14.00;;;;;;;10.85;100.00;96364.78;1034814;28;20045;-69
2021/08/25 01:58:11;;;;;;;18.40;14.75;;;;;;;10.82;100.00;96354.78;1034749;28;20449;-67
2021/08/25 01:58:42;;;;;;;17.40;14.13;;;;;;;10.81;100.00;96361.88;1027606;28;20110;-69
2021/08/25 01:59:12;;;;;;;16.77;13.60;;;;;;;10.80;100.00;96362.94;1034821;28;20494;-70
2021/08/25 01:59:43;;;;;;;22.77;14.73;;;;;;;10.73;100.00;96351.00;1034743;28;20021;-70
2021/08/25 02:00:14;;;;;;;18.13;14.45;;;;;;;10.70;100.00;96346.28;1035910;28;20026;-70
2021/08/25 02:00:45;;;;;;;19.20;14.55;;;;;;;10.75;100.00;96360.25;1030608;28;20026;-69
2021/08/25 02:01:15;;;;;;;17.33;14.07;;;;;;;10.75;100.00;96359.44;1030247;28;20296;-69
2021/08/25 02:01:46;;;;;;;16.30;13.60;;;;;;;10.73;100.00;96361.50;1034874;28;20018;-70
2021/08/25 02:02:16;;;;;;;17.98;14.52;;;;;;;10.70;100.00;96346.28;1030926;28;20026;-69
2021/08/25 02:02:47;;;;;;;15.30;13.55;;;;;;;10.64;100.00;96342.03;1034694;28;20018;-69
2021/08/25 02:03:17;;;;;;;16.52;14.15;;;;;;;10.68;100.00;96353.59;1034770;28;20033;-69
2021/08/25 02:03:48;;;;;;;17.33;14.30;;;;;;;10.67;100.00;96352.03;1035702;28;20041;-69
2021/08/25 02:04:18;;;;;;;17.13;14.15;;;;;;;10.58;100.00;96339.34;1038820;28;20032;-70
2021/08/25 02:04:49;;;;;;;16.95;14.30;;;;;;;10.66;100.00;96353.06;1039014;28;20029;-69
2021/08/25 02:05:19;;;;;;;17.30;14.00;;;;;;;10.65;100.00;96354.09;1034131;28;20061;-69
2021/08/25 02:05:49;;;;;;;16.65;14.15;;;;;;;10.65;100.00;96352.25;1034799;28;20497;-70
2021/08/25 02:06:20;;;;;;;16.67;13.70;;;;;;;10.64;100.00;96353.31;1034637;28;20474;-70
2021/08/25 02:06:50;;;;;;;16.70;14.43;;;;;;;10.57;100.00;96337.75;1030705;28;20176;-70
2021/08/25 02:07:23;;;;;;;19.83;14.65;;;;;;;10.65;100.00;96354.09;1030405;28;20062;-69
2021/08/25 02:07:54;;;;;;;16.67;14.70;;;;;;;10.59;100.00;96353.25;1034480;28;20528;-70
2021/08/25 02:08:24;;;;;;;16.98;13.60;;;;;;;10.60;100.00;96353.00;1031993;28;20319;-69
2021/08/25 02:08:55;;;;;;;17.25;14.98;;;;;;;10.60;100.00;96347.75;1034967;28;20021;-69
2021/08/25 02:09:25;;;;;;;16.63;14.18;;;;;;;10.58;100.00;96349.84;1036634;28;20124;-69
2021/08/25 02:09:56;;;;;;;15.52;13.77;;;;;;;10.57;100.00;96352.72;1034746;28;20030;-69
2021/08/25 02:10:26;;;;;;;16.90;14.02;;;;;;;10.56;100.00;96345.88;1037247;28;20096;-70
2021/08/25 02:10:57;;;;;;;17.20;13.88;;;;;;;10.53;100.00;96349.78;1034971;28;20018;-69
2021/08/25 02:11:27;;;;;;;15.43;13.45;;;;;;;10.54;100.00;96351.38;1038000;28;20017;-70
2021/08/25 02:11:58;;;;;;;16.25;14.10;;;;;;;10.54;100.00;96351.38;1037540;28;20264;-69
2021/08/25 02:12:28;;;;;;;15.38;13.75;;;;;;;10.55;100.00;96358.19;1026575;28;20026;-69
2021/08/25 02:12:59;;;;;;;16.70;14.80;;;;;;;10.52;100.00;96353.44;1026865;28;20030;-68
2021/08/25 02:13:29;;;;;;;17.75;15.05;;;;;;;10.45;100.00;96344.97;1030666;28;20507;-70
2021/08/25 02:14:00;;;;;;;20.08;14.25;;;;;;;10.51;100.00;96354.50;1026840;28;21067;-70
2021/08/25 02:14:30;;;;;;;15.52;13.93;;;;;;;10.50;100.00;96352.91;1033660;28;20034;-69
2021/08/25 02:15:01;;;;;;;17.63;14.32;;;;;;;10.48;100.00;96354.97;1038751;28;20036;-69
2021/08/25 02:15:31;;;;;;;15.95;14.18;;;;;;;10.48;100.00;96348.94;1038979;28;20021;-69
2021/08/25 02:16:02;;;;;;;18.52;14.95;;;;;;;10.47;100.00;96348.16;1033991;28;20475;-69
2021/08/25 02:16:32;;;;;;;18.20;15.02;;;;;;;10.39;100.00;96340.69;1030701;28;20623;-71
2021/08/25 02:17:03;;;;;;;16.08;14.30;;;;;;;10.37;100.00;96333.09;1025334;28;20040;-69
2021/08/25 02:17:34;;;;;;;16.73;14.90;;;;;;;10.44;100.00;96353.09;1030649;28;20023;-70
2021/08/25 02:18:04;;;;;;;18.98;14.93;;;;;;;10.43;100.00;96347.06;1030360;28;20269;-69
2021/08/25 02:18:35;;;;;;;18.08;15.07;;;;;;;10.35;100.00;96335.16;1034158;28;20018;-70
2021/08/25 02:19:05;;;;;;;16.85;14.30;;;;;;;10.35;100.00;96342.25;1026740;28;20023;-70
2021/08/25 02:19:36;;;;;;;18.35;14.90;;;;;;;10.35;100.00;96339.63;1022747;28;20026;-70
2021/08/25 02:20:07;;;;;;;16.45;14.70;;;;;;;10.39;100.00;96351.19;1022403;28;20016;-70
2021/08/25 02:20:37;;;;;;;18.75;15.63;;;;;;;10.31;100.00;96333.28;1023006;28;20032;-70
2021/08/25 02:21:08;;;;;;;19.50;16.10;;;;;;;10.32;100.00;96334.84;1030906;28;20298;-69
2021/08/25 02:21:38;;;;;;;19.50;15.07;;;;;;;10.36;100.00;96341.19;1030052;28;20030;-69
2021/08/25 02:22:09;;;;;;;18.02;15.02;;;;;;;10.35;100.00;96340.41;1037419;28;20022;-69
2021/08/25 02:22:39;;;;;;;19.40;15.25;;;;;;;10.37;100.00;96337.56;1034667;28;20053;-70
2021/08/25 02:23:10;;;;;;;19.67;15.07;;;;;;;10.35;100.00;96337.00;1028371;28;20397;-69
2021/08/25 02:23:40;;;;;;;20.75;15.80;;;;;;;10.28;100.00;96329.31;1028137;28;20182;-69